Time;durP1;ratioP1;P1;durP2;ratioP2;P2;SDS_P1;SDS_P2;PMS_P1;PMS_P2;Temp;Humidity;BMP_temperature;BMP_pressure;BME280_temperature;BME280_humidity;BME280_pressure;Samples;Min_cycle;Max_cycle;Signal;HPM_P1;HPM_P2
2021/06/27 00:00:53;;;;;;;64.38;34.20;;;;;;;;;;5015347;28;20400;-61
2021/06/27 00:03:39;;;;;;;67.38;35.70;;;;;;;;;;5014696;28;20068;-62
2021/06/27 00:06:24;;;;;;;65.03;36.17;;;;;;;;;;5007585;28;20064;-62
2021/06/27 00:09:09;;;;;;;62.47;33.83;;;;;;;;;;5014771;28;20484;-61
2021/06/27 00:11:55;;;;;;;62.13;34.20;;;;;;;;;;5014775;28;20046;-62
2021/06/27 00:14:40;;;;;;;65.95;36.40;;;;;;;;;;5013567;28;20140;-62
2021/06/27 00:17:26;;;;;;;63.63;35.63;;;;;;;;;;5015103;28;20049;-62
2021/06/27 00:20:13;;;;;;;65.00;34.83;;;;;;;;;;5014766;28;20412;-62
2021/06/27 00:22:58;;;;;;;63.03;36.75;;;;;;;;;;5014316;28;20042;-62
2021/06/27 00:25:43;;;;;;;69.10;35.67;;;;;;;;;;5015251;28;20076;-62
2021/06/27 00:28:29;;;;;;;75.22;36.78;;;;;;;;;;5007866;28;20128;-61
2021/06/27 00:31:14;;;;;;;69.70;36.63;;;;;;;;;;5014869;28;20057;-61
2021/06/27 00:34:00;;;;;;;62.30;34.78;;;;;;;;;;5013875;28;20050;-61
2021/06/27 00:36:46;;;;;;;66.50;36.30;;;;;;;;;;5014714;28;20049;-62
2021/06/27 00:39:31;;;;;;;68.70;36.70;;;;;;;;;;5014584;28;20050;-62
2021/06/27 00:42:16;;;;;;;62.33;34.65;;;;;;;;;;5014672;28;20053;-61
2021/06/27 00:45:06;;;;;;;72.45;37.20;;;;;;;;;;5013953;28;20057;-62
2021/06/27 00:47:52;;;;;;;66.78;36.47;;;;;;;;;;5014439;28;20611;-61
2021/06/27 00:50:44;;;;;;;63.20;34.67;;;;;;;;;;5014292;28;20504;-62
2021/06/27 00:53:29;;;;;;;70.68;36.65;;;;;;;;;;5012617;28;20046;-62
2021/06/27 00:56:15;;;;;;;65.88;35.25;;;;;;;;;;5014789;28;20053;-62
2021/06/27 00:59:00;;;;;;;66.47;35.78;;;;;;;;;;5014319;28;20065;-62
2021/06/27 01:01:45;;;;;;;68.82;35.15;;;;;;;;;;5014187;28;20046;-62
2021/06/27 01:04:31;;;;;;;59.33;33.42;;;;;;;;;;5013500;28;20046;-61
2021/06/27 01:07:17;;;;;;;61.58;31.67;;;;;;;;;;5014196;28;20058;-61
2021/06/27 01:10:02;;;;;;;54.78;30.80;;;;;;;;;;5013708;28;20046;-62
2021/06/27 01:12:47;;;;;;;57.88;31.15;;;;;;;;;;5014246;28;20488;-61
2021/06/27 01:15:33;;;;;;;52.40;29.92;;;;;;;;;;5013296;28;20050;-61
2021/06/27 01:18:19;;;;;;;52.63;28.75;;;;;;;;;;5014043;28;20116;-62
2021/06/27 01:21:05;;;;;;;60.22;32.42;;;;;;;;;;5013653;28;20056;-62
2021/06/27 01:23:51;;;;;;;58.15;30.73;;;;;;;;;;5013927;28;20050;-62
2021/06/27 01:26:36;;;;;;;56.80;31.38;;;;;;;;;;5013169;28;20427;-62
2021/06/27 01:29:22;;;;;;;56.47;31.33;;;;;;;;;;5013387;28;20504;-61
2021/06/27 01:32:10;;;;;;;59.22;30.92;;;;;;;;;;5013697;28;20069;-61
2021/06/27 01:34:55;;;;;;;53.20;29.52;;;;;;;;;;5013009;28;20057;-62
2021/06/27 01:37:42;;;;;;;64.93;32.13;;;;;;;;;;5013721;28;20049;-62
2021/06/27 01:40:28;;;;;;;60.72;31.90;;;;;;;;;;5013496;28;20045;-62
2021/06/27 01:43:16;;;;;;;62.85;31.63;;;;;;;;;;5013473;28;20053;-61
2021/06/27 01:46:02;;;;;;;60.85;29.88;;;;;;;;;;5012137;28;20042;-61
2021/06/27 01:48:47;;;;;;;59.20;29.95;;;;;;;;;;5013544;28;20046;-62
2021/06/27 01:51:32;;;;;;;57.35;29.70;;;;;;;;;;5012622;28;20056;-62
2021/06/27 01:54:18;;;;;;;52.03;28.92;;;;;;;;;;5013141;28;20046;-62
2021/06/27 01:57:03;;;;;;;62.35;31.48;;;;;;;;;;5011663;28;20042;-61
2021/06/27 01:59:49;;;;;;;60.88;30.63;;;;;;;;;;5012856;28;20050;-62
2021/06/27 02:02:35;;;;;;;64.13;31.50;;;;;;;;;;5013136;28;20132;-62
2021/06/27 02:05:20;;;;;;;64.03;29.10;;;;;;;;;;5012154;28;20041;-62
2021/06/27 02:08:06;;;;;;;66.38;31.67;;;;;;;;;;5010935;28;20056;-62
2021/06/27 02:10:51;;;;;;;66.68;31.98;;;;;;;;;;5012417;28;20042;-62
2021/06/27 02:13:37;;;;;;;67.80;31.13;;;;;;;;;;5013131;28;20049;-62
2021/06/27 02:16:22;;;;;;;56.85;28.15;;;;;;;;;;5004281;28;20041;-61
2021/06/27 02:19:08;;;;;;;68.97;31.58;;;;;;;;;;5012830;28;20054;-62
2021/06/27 02:21:53;;;;;;;60.28;28.33;;;;;;;;;;5013054;28;20049;-62
2021/06/27 02:24:39;;;;;;;64.38;29.58;;;;;;;;;;5012878;28;20061;-61
2021/06/27 02:27:25;;;;;;;58.55;28.23;;;;;;;;;;5011615;28;20057;-61
2021/06/27 02:30:11;;;;;;;56.80;27.70;;;;;;;;;;5011422;28;20800;-61
2021/06/27 02:32:56;;;;;;;61.70;29.60;;;;;;;;;;5012572;28;20073;-61
2021/06/27 02:35:42;;;;;;;64.35;28.77;;;;;;;;;;5012824;28;20054;-61
2021/06/27 02:38:31;;;;;;;59.53;29.13;;;;;;;;;;5011840;28;20045;-61
2021/06/27 02:41:17;;;;;;;61.90;28.73;;;;;;;;;;5011511;28;20054;-61
2021/06/27 02:44:03;;;;;;;63.22;29.83;;;;;;;;;;5012556;28;20056;-61
2021/06/27 02:46:48;;;;;;;73.03;30.50;;;;;;;;;;5012421;28;20419;-61
2021/06/27 02:49:34;;;;;;;72.72;31.50;;;;;;;;;;5011460;28;20057;-61
2021/06/27 02:52:19;;;;;;;67.65;30.98;;;;;;;;;;5012430;28;20515;-61
2021/06/27 02:55:05;;;;;;;76.68;33.22;;;;;;;;;;5012635;28;20049;-62
2021/06/27 02:57:53;;;;;;;68.75;30.88;;;;;;;;;;5011602;28;20870;-61
2021/06/27 03:00:39;;;;;;;74.22;32.80;;;;;;;;;;5012050;28;20069;-61
2021/06/27 03:03:24;;;;;;;81.03;34.13;;;;;;;;;;5012346;28;20490;-61
2021/06/27 03:06:10;;;;;;;67.57;30.00;;;;;;;;;;5012335;28;20489;-61
2021/06/27 03:08:56;;;;;;;79.13;32.90;;;;;;;;;;5011570;28;20420;-61
2021/06/27 03:11:42;;;;;;;81.47;34.10;;;;;;;;;;5011870;28;20408;-62
2021/06/27 03:14:28;;;;;;;77.72;32.80;;;;;;;;;;5012354;28;20136;-61
2021/06/27 03:17:14;;;;;;;82.80;34.55;;;;;;;;;;5014417;28;20129;-62
2021/06/27 03:19:59;;;;;;;73.55;31.10;;;;;;;;;;5014826;28;20050;-62
2021/06/27 03:22:46;;;;;;;84.63;32.92;;;;;;;;;;5016426;28;20057;-62
2021/06/27 03:25:34;;;;;;;78.07;31.05;;;;;;;;;;5016178;28;20070;-61
2021/06/27 03:28:20;;;;;;;80.35;32.85;;;;;;;;;;5015859;28;20056;-62
2021/06/27 03:31:06;;;;;;;74.00;31.33;;;;;;;;;;5015061;28;20054;-61
2021/06/27 03:33:52;;;;;;;78.03;33.17;;;;;;;;;;5016012;28;20103;-62
2021/06/27 03:36:37;;;;;;;84.00;34.08;;;;;;;;;;5016082;28;20567;-62
2021/06/27 03:39:23;;;;;;;78.80;32.72;;;;;;;;;;5014787;28;20492;-61
2021/06/27 03:42:09;;;;;;;79.65;34.35;;;;;;;;;;5015815;28;20060;-62
2021/06/27 03:44:55;;;;;;;75.90;31.88;;;;;;;;;;5015582;28;20097;-62
2021/06/27 03:47:40;;;;;;;97.20;34.55;;;;;;;;;;5015634;28;20061;-62
2021/06/27 03:50:26;;;;;;;94.50;34.05;;;;;;;;;;5006931;28;20046;-62
2021/06/27 03:53:12;;;;;;;89.07;34.17;;;;;;;;;;5015812;28;20049;-62
2021/06/27 03:55:58;;;;;;;81.80;33.15;;;;;;;;;;5015622;28;20073;-62
2021/06/27 03:58:43;;;;;;;88.80;35.58;;;;;;;;;;5015567;28;20056;-62
2021/06/27 04:01:29;;;;;;;86.70;33.30;;;;;;;;;;5012488;28;20056;-62
2021/06/27 04:04:15;;;;;;;70.93;30.27;;;;;;;;;;5015621;28;20050;-62
2021/06/27 04:07:00;;;;;;;93.38;36.65;;;;;;;;;;5015288;28;20053;-61
2021/06/27 04:09:46;;;;;;;80.78;33.58;;;;;;;;;;5015179;28;20435;-61
2021/06/27 04:12:32;;;;;;;88.55;33.75;;;;;;;;;;5014981;28;20050;-62
2021/06/27 04:15:17;;;;;;;102.90;38.08;;;;;;;;;;5015429;28;20069;-61
2021/06/27 04:18:02;;;;;;;114.60;37.92;;;;;;;;;;5014994;28;20121;-62
2021/06/27 04:20:48;;;;;;;99.43;34.35;;;;;;;;;;5013034;28;20538;-62
2021/06/27 04:23:34;;;;;;;108.43;34.88;;;;;;;;;;5015030;28;20072;-61
2021/06/27 04:26:20;;;;;;;173.23;42.38;;;;;;;;;;5015088;28;20049;-62
2021/06/27 04:29:05;;;;;;;148.50;41.20;;;;;;;;;;5013543;28;20140;-62
2021/06/27 04:31:51;;;;;;;223.05;44.90;;;;;;;;;;5013741;28;20096;-62
2021/06/27 04:34:36;;;;;;;145.05;40.47;;;;;;;;;;5014557;28;20056;-62
2021/06/27 04:37:21;;;;;;;185.40;43.95;;;;;;;;;;5014632;28;20512;-62
2021/06/27 04:40:08;;;;;;;266.40;48.30;;;;;;;;;;5014058;28;20555;-62
2021/06/27 04:42:54;;;;;;;218.48;41.72;;;;;;;;;;5013812;28;20487;-62
2021/06/27 04:45:40;;;;;;;186.07;40.50;;;;;;;;;;5014532;28;20115;-62
2021/06/27 04:48:25;;;;;;;257.50;48.25;;;;;;;;;;5014390;28;20423;-62
2021/06/27 04:51:11;;;;;;;237.80;42.67;;;;;;;;;;5014136;28;20056;-62
2021/06/27 04:53:56;;;;;;;231.50;43.67;;;;;;;;;;5014575;28;20542;-62
2021/06/27 04:56:41;;;;;;;205.27;42.63;;;;;;;;;;5014350;28;20049;-62
2021/06/27 04:59:27;;;;;;;148.40;39.80;;;;;;;;;;5014048;28;20049;-62
2021/06/27 05:02:12;;;;;;;154.35;39.58;;;;;;;;;;5013123;28;20120;-62
2021/06/27 05:04:57;;;;;;;120.80;36.10;;;;;;;;;;5013490;28;20057;-62
2021/06/27 05:07:43;;;;;;;118.65;39.55;;;;;;;;;;5014041;28;20056;-62
2021/06/27 05:10:28;;;;;;;117.57;36.15;;;;;;;;;;5013723;28;20088;-62
2021/06/27 05:13:13;;;;;;;89.70;32.65;;;;;;;;;;5012239;28;20489;-62
2021/06/27 05:15:59;;;;;;;80.63;32.33;;;;;;;;;;5014079;28;20052;-62
2021/06/27 05:18:44;;;;;;;79.80;31.88;;;;;;;;;;5013790;28;20057;-62
2021/06/27 05:21:30;;;;;;;61.22;26.65;;;;;;;;;;5013959;28;20053;-62
2021/06/27 05:24:15;;;;;;;58.15;26.50;;;;;;;;;;5012706;28;20058;-62
2021/06/27 05:27:00;;;;;;;63.55;29.15;;;;;;;;;;5013749;28;20054;-62
2021/06/27 05:29:46;;;;;;;64.72;32.80;;;;;;;;;;5013326;28;20053;-62
2021/06/27 05:32:31;;;;;;;66.90;32.10;;;;;;;;;;5013703;28;20048;-62
2021/06/27 05:35:17;;;;;;;67.80;33.20;;;;;;;;;;5012591;28;20111;-62
2021/06/27 05:38:02;;;;;;;61.65;31.02;;;;;;;;;;5013748;28;20060;-62
2021/06/27 05:40:48;;;;;;;60.53;32.28;;;;;;;;;;5012726;28;20046;-62
2021/06/27 05:43:33;;;;;;;62.15;32.22;;;;;;;;;;5012857;28;20069;-62
2021/06/27 05:46:18;;;;;;;58.03;31.10;;;;;;;;;;4993859;28;20053;-62
2021/06/27 05:49:05;;;;;;;56.90;29.83;;;;;;;;;;4993593;28;20196;-62
2021/06/27 05:51:50;;;;;;;53.78;28.15;;;;;;;;;;4993549;28;20509;-62
2021/06/27 05:54:36;;;;;;;49.63;27.45;;;;;;;;;;4998284;28;20046;-62
2021/06/27 05:57:22;;;;;;;52.30;27.33;;;;;;;;;;5013283;28;20451;-62
2021/06/27 06:00:07;;;;;;;47.20;26.67;;;;;;;;;;5012797;28;20531;-62
2021/06/27 06:02:56;;;;;;;51.33;29.40;;;;;;;;;;5012964;28;20139;-62
2021/06/27 06:05:41;;;;;;;44.63;28.13;;;;;;;;;;5012493;28;20088;-62
2021/06/27 06:08:26;;;;;;;50.65;29.48;;;;;;;;;;5012834;28;20057;-62
2021/06/27 06:11:11;;;;;;;52.58;31.13;;;;;;;;;;5012605;28;20092;-62
2021/06/27 06:13:57;;;;;;;45.35;27.55;;;;;;;;;;5012876;28;20053;-62
2021/06/27 06:16:45;;;;;;;44.20;29.00;;;;;;;;;;5011983;28;20096;-62
2021/06/27 06:19:31;;;;;;;38.20;26.20;;;;;;;;;;5012517;28;20064;-62
2021/06/27 06:22:16;;;;;;;42.58;26.02;;;;;;;;;;5012843;28;20076;-62
2021/06/27 06:25:02;;;;;;;36.80;22.52;;;;;;;;;;5011734;28;20052;-62
2021/06/27 06:27:47;;;;;;;39.33;27.23;;;;;;;;;;5012882;28;20056;-62
2021/06/27 06:30:32;;;;;;;34.55;24.40;;;;;;;;;;5012358;28;20128;-62
2021/06/27 06:33:18;;;;;;;37.40;25.42;;;;;;;;;;5005822;28;20057;-62
2021/06/27 06:36:03;;;;;;;32.63;21.48;;;;;;;;;;5003884;28;20183;-62
2021/06/27 06:38:48;;;;;;;34.83;24.63;;;;;;;;;;4998127;28;20057;-62
2021/06/27 06:41:34;;;;;;;35.58;24.17;;;;;;;;;;4992596;28;20046;-62
2021/06/27 06:44:19;;;;;;;38.78;26.02;;;;;;;;;;4992893;28;20688;-62
2021/06/27 06:47:05;;;;;;;32.65;21.83;;;;;;;;;;5004185;28;20050;-62
2021/06/27 06:49:50;;;;;;;30.67;20.90;;;;;;;;;;5010703;28;20041;-62
2021/06/27 06:52:36;;;;;;;32.03;22.60;;;;;;;;;;4992093;28;20045;-62
2021/06/27 06:55:21;;;;;;;40.75;25.45;;;;;;;;;;4998130;28;20129;-62
2021/06/27 06:58:07;;;;;;;31.15;21.42;;;;;;;;;;5005069;28;20038;-62
2021/06/27 07:00:52;;;;;;;31.08;23.08;;;;;;;;;;5009152;28;20100;-62
2021/06/27 07:03:38;;;;;;;36.17;23.60;;;;;;;;;;5003166;28;20127;-62
2021/06/27 07:06:23;;;;;;;30.88;22.95;;;;;;;;;;5011478;28;20064;-62
2021/06/27 07:09:08;;;;;;;34.85;24.45;;;;;;;;;;5012100;28;20057;-62
2021/06/27 07:11:54;;;;;;;33.33;22.55;;;;;;;;;;4989809;28;20057;-62
2021/06/27 07:14:39;;;;;;;32.03;22.92;;;;;;;;;;5005057;28;20099;-62
2021/06/27 07:17:25;;;;;;;31.25;20.42;;;;;;;;;;5005875;28;20128;-62
2021/06/27 07:20:10;;;;;;;27.20;20.35;;;;;;;;;;4992297;28;20089;-62
2021/06/27 07:22:56;;;;;;;29.70;20.58;;;;;;;;;;4992173;28;20543;-63
2021/06/27 07:25:41;;;;;;;30.38;23.00;;;;;;;;;;4992218;28;20128;-62
2021/06/27 07:28:27;;;;;;;30.15;21.33;;;;;;;;;;5002255;28;20065;-62
2021/06/27 07:31:12;;;;;;;29.08;21.33;;;;;;;;;;5011557;28;20507;-63
2021/06/27 07:33:58;;;;;;;29.48;21.50;;;;;;;;;;4992579;28;20445;-63
2021/06/27 07:36:44;;;;;;;26.17;21.33;;;;;;;;;;4992563;28;20072;-62
2021/06/27 07:39:30;;;;;;;25.58;21.35;;;;;;;;;;5008409;28;20504;-62
2021/06/27 07:42:15;;;;;;;25.02;20.60;;;;;;;;;;5012074;28;20054;-62
2021/06/27 07:45:01;;;;;;;24.23;19.05;;;;;;;;;;5010434;28;20046;-63
2021/06/27 07:47:46;;;;;;;26.25;19.60;;;;;;;;;;5011898;28;20041;-63
2021/06/27 07:50:32;;;;;;;24.50;19.02;;;;;;;;;;5011358;28;20045;-63
2021/06/27 07:53:17;;;;;;;19.60;16.83;;;;;;;;;;5011883;28;20527;-63
2021/06/27 07:56:02;;;;;;;22.73;15.93;;;;;;;;;;5010932;28;20123;-63
2021/06/27 07:58:48;;;;;;;25.92;19.83;;;;;;;;;;4999290;28;20043;-63
2021/06/27 08:01:33;;;;;;;23.52;18.55;;;;;;;;;;5003469;28;20136;-63
2021/06/27 08:04:18;;;;;;;19.35;16.60;;;;;;;;;;5015379;28;20049;-63
2021/06/27 08:07:04;;;;;;;20.27;16.65;;;;;;;;;;5008906;28;20060;-63
2021/06/27 08:09:49;;;;;;;21.83;17.05;;;;;;;;;;4998827;28;20046;-63
2021/06/27 08:12:35;;;;;;;19.33;16.67;;;;;;;;;;4997237;28;20134;-63
2021/06/27 08:15:20;;;;;;;21.70;17.67;;;;;;;;;;5002938;28;20056;-64
2021/06/27 08:18:06;;;;;;;20.58;17.02;;;;;;;;;;5014082;28;20068;-63
2021/06/27 08:20:51;;;;;;;19.77;16.08;;;;;;;;;;5013783;28;20049;-63
2021/06/27 08:23:36;;;;;;;17.75;15.57;;;;;;;;;;5009007;28;20451;-64
2021/06/27 08:26:23;;;;;;;20.10;16.42;;;;;;;;;;5014316;28;20056;-64
2021/06/27 08:29:09;;;;;;;19.63;17.00;;;;;;;;;;5014871;28;20113;-64
2021/06/27 08:31:54;;;;;;;19.35;15.50;;;;;;;;;;5013893;28;20042;-63
2021/06/27 08:34:39;;;;;;;16.38;14.57;;;;;;;;;;5014872;28;20042;-63
2021/06/27 08:37:25;;;;;;;17.23;15.18;;;;;;;;;;5014509;28;20165;-63
2021/06/27 08:40:10;;;;;;;19.52;15.80;;;;;;;;;;5014350;28;20142;-64
2021/06/27 08:42:56;;;;;;;17.45;15.15;;;;;;;;;;4998238;28;20054;-63
2021/06/27 08:45:54;;;;;;;16.67;13.95;;;;;;;;;;4998694;28;20057;-63
2021/06/27 08:48:39;;;;;;;15.50;13.57;;;;;;;;;;5006710;28;20185;-63
2021/06/27 08:51:25;;;;;;;18.75;16.10;;;;;;;;;;4994003;28;20049;-63
2021/06/27 08:54:10;;;;;;;16.80;14.45;;;;;;;;;;4998200;28;20049;-63
2021/06/27 08:56:56;;;;;;;18.92;15.68;;;;;;;;;;5009252;28;20050;-63
2021/06/27 08:59:41;;;;;;;16.15;14.32;;;;;;;;;;4994562;28;20117;-63
2021/06/27 09:02:26;;;;;;;16.08;13.43;;;;;;;;;;5004875;28;20108;-63
2021/06/27 09:05:12;;;;;;;15.95;14.25;;;;;;;;;;5014268;28;20433;-63
2021/06/27 09:08:13;;;;;;;16.48;14.70;;;;;;;;;;5014151;28;20120;-62
2021/06/27 09:11:14;;;;;;;15.25;13.32;;;;;;;;;;4999023;28;20054;-63
2021/06/27 09:13:59;;;;;;;15.23;13.70;;;;;;;;;;5003287;28;20053;-63
2021/06/27 09:16:44;;;;;;;13.90;11.82;;;;;;;;;;4984394;28;20169;-62
2021/06/27 09:19:29;;;;;;;15.73;14.13;;;;;;;;;;5001855;28;20049;-62
2021/06/27 09:22:15;;;;;;;15.75;12.32;;;;;;;;;;5003086;28;20045;-62
2021/06/27 09:25:12;;;;;;;13.95;11.32;;;;;;;;;;4997201;28;20046;-62
2021/06/27 09:28:03;;;;;;;14.63;13.13;;;;;;;;;;4992011;28;20053;-63
2021/06/27 09:30:49;;;;;;;14.82;13.32;;;;;;;;;;5008091;28;20050;-63
2021/06/27 09:33:35;;;;;;;16.92;12.95;;;;;;;;;;4999426;28;20042;-63
2021/06/27 09:36:20;;;;;;;14.80;12.63;;;;;;;;;;5000226;28;20513;-62
2021/06/27 09:39:13;;;;;;;14.02;12.52;;;;;;;;;;5013443;28;20049;-63
2021/06/27 09:43:08;;;;;;;17.65;13.40;;;;;;;;;;5130302;27;20859;-62
2021/06/27 09:45:56;;;;;;;14.45;11.45;;;;;;;;;;5127928;27;20047;-62
2021/06/27 09:48:52;;;;;;;16.48;13.18;;;;;;;;;;5130267;28;20057;-62
2021/06/27 09:51:38;;;;;;;13.05;11.40;;;;;;;;;;5107502;28;20128;-62
2021/06/27 09:54:24;;;;;;;14.80;12.27;;;;;;;;;;5109805;28;20136;-62
2021/06/27 09:57:09;;;;;;;13.93;11.63;;;;;;;;;;5107641;28;20508;-62
2021/06/27 09:59:54;;;;;;;14.52;12.85;;;;;;;;;;5108114;28;20562;-62
2021/06/27 10:02:59;;;;;;;14.77;12.48;;;;;;;;;;5109597;28;20386;-62
2021/06/27 10:05:44;;;;;;;15.25;12.18;;;;;;;;;;5109432;28;20493;-62
2021/06/27 10:08:32;;;;;;;15.82;13.45;;;;;;;;;;5108683;28;20047;-63
2021/06/27 10:11:21;;;;;;;14.80;11.02;;;;;;;;;;5135188;22;20047;-62
2021/06/27 10:14:08;;;;;;;13.77;11.57;;;;;;;;;;5128070;28;20043;-62
2021/06/27 10:16:53;;;;;;;16.17;11.77;;;;;;;;;;5130007;28;20047;-62
2021/06/27 10:19:38;;;;;;;14.88;12.63;;;;;;;;;;5126248;28;20528;-63
2021/06/27 10:22:26;;;;;;;13.80;11.07;;;;;;;;;;5129636;28;20045;-62
2021/06/27 10:25:12;;;;;;;16.08;11.00;;;;;;;;;;5129581;28;20054;-62
2021/06/27 10:27:57;;;;;;;12.00;10.70;;;;;;;;;;5129675;28;20128;-62
2021/06/27 10:30:42;;;;;;;13.52;12.13;;;;;;;;;;5125632;28;20134;-62
2021/06/27 10:33:27;;;;;;;12.13;10.90;;;;;;;;;;5129456;28;20063;-62
2021/06/27 10:36:14;;;;;;;12.45;11.18;;;;;;;;;;5129555;28;20057;-62
2021/06/27 10:38:59;;;;;;;12.48;9.93;;;;;;;;;;5128541;28;20101;-63
2021/06/27 10:41:51;;;;;;;12.25;10.48;;;;;;;;;;5119339;28;20050;-63
2021/06/27 10:44:39;;;;;;;11.25;9.88;;;;;;;;;;5129410;28;20040;-62
2021/06/27 10:47:32;;;;;;;10.75;9.70;;;;;;;;;;5088376;28;20051;-62
2021/06/27 10:50:17;;;;;;;11.00;9.80;;;;;;;;;;5088142;28;20507;-62
2021/06/27 10:53:02;;;;;;;11.43;10.23;;;;;;;;;;5104110;28;20164;-62
2021/06/27 10:55:48;;;;;;;11.60;9.90;;;;;;;;;;5115346;28;20039;-62
2021/06/27 10:58:37;;;;;;;13.25;11.55;;;;;;;;;;5115506;28;20046;-62
2021/06/27 11:01:22;;;;;;;13.13;10.10;;;;;;;;;;5114829;28;20126;-62
2021/06/27 11:04:24;;;;;;;12.55;11.18;;;;;;;;;;5106810;28;20047;-63
2021/06/27 11:07:09;;;;;;;13.10;11.20;;;;;;;;;;5115147;28;20054;-62
2021/06/27 11:09:54;;;;;;;11.07;9.90;;;;;;;;;;5114742;28;20496;-62
2021/06/27 11:12:59;;;;;;;12.15;10.30;;;;;;;;;;5109772;28;20142;-62
2021/06/27 11:15:46;;;;;;;11.65;10.43;;;;;;;;;;5115116;28;20051;-62
2021/06/27 11:18:40;;;;;;;12.65;11.25;;;;;;;;;;5110353;28;20508;-62
2021/06/27 11:21:34;;;;;;;12.82;11.52;;;;;;;;;;5113690;28;20108;-63
2021/06/27 11:24:22;;;;;;;11.55;10.35;;;;;;;;;;5114980;28;20074;-62
2021/06/27 11:27:07;;;;;;;13.88;12.18;;;;;;;;;;5113836;28;20071;-62
2021/06/27 11:29:53;;;;;;;14.68;11.88;;;;;;;;;;5112280;28;20043;-62
2021/06/27 11:32:38;;;;;;;14.10;11.73;;;;;;;;;;5114725;28;20547;-62
2021/06/27 11:35:33;;;;;;;11.77;10.55;;;;;;;;;;5114638;28;20128;-62
2021/06/27 11:38:37;;;;;;;12.98;11.43;;;;;;;;;;5114786;28;20085;-62
2021/06/27 11:41:25;;;;;;;12.18;9.68;;;;;;;;;;5105369;28;20042;-62
2021/06/27 11:44:17;;;;;;;11.68;10.52;;;;;;;;;;5109961;28;20058;-62
2021/06/27 11:47:09;;;;;;;10.02;8.93;;;;;;;;;;5114594;28;20046;-62
2021/06/27 11:49:55;;;;;;;10.48;9.48;;;;;;;;;;5113035;28;20051;-63
2021/06/27 11:52:40;;;;;;;13.18;9.23;;;;;;;;;;5114316;28;20544;-62
2021/06/27 11:55:25;;;;;;;11.13;9.35;;;;;;;;;;5109631;28;20039;-63
2021/06/27 11:58:18;;;;;;;10.68;9.68;;;;;;;;;;5109772;28;20049;-63
2021/06/27 12:01:07;;;;;;;10.75;7.75;;;;;;;;;;5113727;28;20043;-63
2021/06/27 12:03:52;;;;;;;10.43;9.30;;;;;;;;;;5113809;28;20046;-63
2021/06/27 12:06:38;;;;;;;8.77;7.30;;;;;;;;;;5109730;28;20050;-62
2021/06/27 12:09:35;;;;;;;9.38;8.38;;;;;;;;;;5113999;28;20112;-63
2021/06/27 12:12:36;;;;;;;10.43;9.32;;;;;;;;;;5111646;28;20046;-62
2021/06/27 12:15:21;;;;;;;9.85;8.85;;;;;;;;;;5113815;28;20124;-62
2021/06/27 12:18:06;;;;;;;10.68;8.77;;;;;;;;;;5113891;28;20054;-62
2021/06/27 12:20:56;;;;;;;8.30;7.50;;;;;;;;;;5082211;28;20516;-63
2021/06/27 12:23:42;;;;;;;11.25;8.68;;;;;;;;;;5088091;28;20515;-63
2021/06/27 12:26:27;;;;;;;8.98;8.10;;;;;;;;;;5113694;28;20070;-62
2021/06/27 12:29:12;;;;;;;9.10;8.20;;;;;;;;;;5108069;28;20063;-62
2021/06/27 12:31:57;;;;;;;8.20;7.40;;;;;;;;;;5113344;28;20066;-62
2021/06/27 12:34:43;;;;;;;9.93;8.13;;;;;;;;;;5103801;28;20043;-63
2021/06/27 12:37:28;;;;;;;9.32;8.30;;;;;;;;;;5098170;28;20051;-63
2021/06/27 12:40:14;;;;;;;8.93;7.50;;;;;;;;;;5111886;28;20051;-63
2021/06/27 12:42:59;;;;;;;8.70;7.80;;;;;;;;;;5107451;28;20055;-63
2021/06/27 12:45:44;;;;;;;9.23;7.88;;;;;;;;;;5113267;28;20050;-62
2021/06/27 12:48:29;;;;;;;10.18;8.10;;;;;;;;;;5113086;28;20073;-62
2021/06/27 12:51:21;;;;;;;9.27;8.38;;;;;;;;;;5112807;28;20044;-63
2021/06/27 12:54:10;;;;;;;8.70;7.80;;;;;;;;;;5108498;28;20073;-63
2021/06/27 12:57:04;;;;;;;8.70;7.70;;;;;;;;;;5090716;28;20047;-62
2021/06/27 12:59:50;;;;;;;10.00;8.98;;;;;;;;;;5065384;28;20133;-63
2021/06/27 13:02:36;;;;;;;8.68;7.88;;;;;;;;;;5090951;28;20051;-62
2021/06/27 13:05:21;;;;;;;8.52;7.72;;;;;;;;;;5083493;28;20055;-63
2021/06/27 13:08:06;;;;;;;8.57;7.32;;;;;;;;;;5088839;28;20512;-63
2021/06/27 13:10:51;;;;;;;7.57;6.80;;;;;;;;;;5089181;28;20528;-63
2021/06/27 13:13:37;;;;;;;7.82;7.03;;;;;;;;;;5086344;28;20425;-64
2021/06/27 13:16:22;;;;;;;8.10;7.30;;;;;;;;;;5084611;28;20150;-62
2021/06/27 13:19:07;;;;;;;7.32;6.63;;;;;;;;;;5088258;28;20512;-63
2021/06/27 13:22:07;;;;;;;8.10;7.18;;;;;;;;;;5088084;28;20047;-63
2021/06/27 13:25:02;;;;;;;8.90;8.00;;;;;;;;;;5087756;28;20042;-64
2021/06/27 13:27:54;;;;;;;7.03;6.30;;;;;;;;;;5090583;28;20051;-62
2021/06/27 13:30:39;;;;;;;;;;;;;;;;;;5090609;28;20121;-63
2021/06/27 13:33:28;;;;;;;7.97;6.85;;;;;;;;;;5089153;28;19923;-62
2021/06/27 13:36:13;;;;;;;7.45;6.28;;;;;;;;;;5109749;28;20512;-63
2021/06/27 13:39:08;;;;;;;7.40;6.70;;;;;;;;;;5110155;28;20232;-63
2021/06/27 13:41:54;;;;;;;7.07;6.32;;;;;;;;;;5109102;28;20063;-63
2021/06/27 13:44:59;;;;;;;8.07;5.38;;;;;;;;;;5104890;28;20174;-63
2021/06/27 13:47:45;;;;;;;5.95;5.38;;;;;;;;;;5110845;28;20043;-63
2021/06/27 13:50:30;;;;;;;6.78;6.13;;;;;;;;;;5101360;28;20405;-63
2021/06/27 13:53:16;;;;;;;6.32;5.72;;;;;;;;;;5087620;28;20654;-62
2021/06/27 13:56:14;;;;;;;6.93;5.85;;;;;;;;;;5087468;28;20059;-62
2021/06/27 13:59:00;;;;;;;6.63;6.05;;;;;;;;;;5082565;28;20272;-63
2021/06/27 14:01:46;;;;;;;6.63;5.50;;;;;;;;;;5069086;28;20182;-63
2021/06/27 14:04:31;;;;;;;6.30;5.65;;;;;;;;;;5069838;28;20090;-63
2021/06/27 14:07:16;;;;;;;6.65;5.82;;;;;;;;;;5109325;28;20059;-62
2021/06/27 14:10:02;;;;;;;6.05;5.57;;;;;;;;;;5108272;28;20054;-63
2021/06/27 14:12:47;;;;;;;7.65;5.40;;;;;;;;;;5109595;28;20054;-63
2021/06/27 14:15:32;;;;;;;8.18;6.15;;;;;;;;;;5096059;28;20084;-63
2021/06/27 14:18:18;;;;;;;7.03;6.05;;;;;;;;;;5109678;28;20128;-63
2021/06/27 14:21:05;;;;;;;6.75;6.13;;;;;;;;;;5108912;28;20044;-62
2021/06/27 14:23:50;;;;;;;6.47;5.20;;;;;;;;;;5109343;28;20071;-63
2021/06/27 14:26:36;;;;;;;7.15;6.05;;;;;;;;;;5105661;28;20074;-63
2021/06/27 14:29:21;;;;;;;5.80;5.22;;;;;;;;;;5112954;28;20120;-63
2021/06/27 14:32:07;;;;;;;6.32;5.70;;;;;;;;;;5113290;28;20058;-63
2021/06/27 14:34:52;;;;;;;5.85;5.25;;;;;;;;;;5113163;28;20039;-63
2021/06/27 14:37:41;;;;;;;6.13;5.43;;;;;;;;;;5111979;28;20106;-63
2021/06/27 14:40:26;;;;;;;7.47;5.80;;;;;;;;;;5112842;28;20047;-63
2021/06/27 14:43:11;;;;;;;7.63;5.45;;;;;;;;;;5112077;28;20168;-62
2021/06/27 14:45:57;;;;;;;6.50;5.78;;;;;;;;;;5072853;28;20085;-63
2021/06/27 14:48:42;;;;;;;7.35;5.53;;;;;;;;;;5113503;28;20116;-63
2021/06/27 14:51:27;;;;;;;7.43;6.03;;;;;;;;;;5113055;28;20054;-63
2021/06/27 14:54:14;;;;;;;6.20;5.60;;;;;;;;;;5110578;28;20051;-63
2021/06/27 14:56:59;;;;;;;6.63;6.03;;;;;;;;;;5103368;28;20079;-63
2021/06/27 14:59:44;;;;;;;6.20;5.60;;;;;;;;;;5087271;28;20138;-63
2021/06/27 15:02:29;;;;;;;6.28;5.68;;;;;;;;;;5091545;28;20486;-63
2021/06/27 15:05:15;;;;;;;7.97;5.78;;;;;;;;;;5091567;28;20043;-63
2021/06/27 15:08:00;;;;;;;6.25;5.00;;;;;;;;;;5090769;28;20055;-63
2021/06/27 15:10:45;;;;;;;6.45;5.85;;;;;;;;;;5091164;28;20047;-63
2021/06/27 15:13:31;;;;;;;6.47;5.88;;;;;;;;;;5091972;28;20062;-63
2021/06/27 15:16:16;;;;;;;7.45;6.03;;;;;;;;;;5102461;28;20195;-63
2021/06/27 15:19:01;;;;;;;6.10;5.57;;;;;;;;;;5111163;28;20065;-63
2021/06/27 15:21:46;;;;;;;5.78;5.22;;;;;;;;;;5111641;28;20050;-63
2021/06/27 15:24:32;;;;;;;6.97;6.25;;;;;;;;;;5111385;28;20050;-62
2021/06/27 15:27:17;;;;;;;8.30;6.63;;;;;;;;;;5110230;28;20104;-62
2021/06/27 15:30:02;;;;;;;7.32;5.95;;;;;;;;;;5111849;28;20644;-63
2021/06/27 15:32:47;;;;;;;6.55;5.60;;;;;;;;;;5112891;28;20071;-63
2021/06/27 15:35:33;;;;;;;5.68;5.15;;;;;;;;;;5112749;28;20104;-63
2021/06/27 15:38:18;;;;;;;5.97;5.47;;;;;;;;;;5072253;28;20063;-62
2021/06/27 15:41:04;;;;;;;7.18;5.95;;;;;;;;;;5070939;28;20130;-62
2021/06/27 15:43:49;;;;;;;6.20;5.60;;;;;;;;;;5076227;28;20054;-63
2021/06/27 15:46:36;;;;;;;6.75;5.55;;;;;;;;;;5095824;28;20046;-62
2021/06/27 15:49:21;;;;;;;10.07;5.80;;;;;;;;;;5112352;28;20093;-63
2021/06/27 15:52:06;;;;;;;6.60;5.95;;;;;;;;;;5108347;28;20489;-63
2021/06/27 15:54:52;;;;;;;7.45;6.03;;;;;;;;;;5111401;28;20044;-63
2021/06/27 15:57:37;;;;;;;6.95;6.35;;;;;;;;;;5110800;28;20055;-63
2021/06/27 16:00:23;;;;;;;6.57;5.88;;;;;;;;;;5069823;28;20040;-63
2021/06/27 16:03:08;;;;;;;6.60;6.00;;;;;;;;;;5111651;28;20058;-63
2021/06/27 16:05:53;;;;;;;6.43;5.90;;;;;;;;;;5111074;28;20539;-63
2021/06/27 16:08:43;;;;;;;5.20;4.72;;;;;;;;;;5108625;28;20130;-63
2021/06/27 16:11:28;;;;;;;5.95;5.30;;;;;;;;;;5117136;22;20060;-63
2021/06/27 16:14:13;;;;;;;5.93;5.32;;;;;;;;;;5054534;28;20541;-64
2021/06/27 16:16:59;;;;;;;6.20;5.70;;;;;;;;;;5066625;28;20059;-64